createdAt,value
2022-12-14T00:01:29.722Z,1.67
2022-12-14T00:03:58.216Z,1.90
2022-12-14T00:06:28.972Z,1.90
2022-12-14T00:09:00.004Z,1.80
2022-12-14T00:11:29.451Z,2.03
2022-12-14T00:13:58.002Z,1.63
2022-12-14T00:16:26.779Z,1.30
2022-12-14T00:18:57.867Z,1.40
2022-12-14T00:21:28.391Z,1.80
2022-12-14T00:24:02.131Z,1.67
2022-12-14T00:26:31.196Z,1.77
2022-12-14T00:29:02.387Z,1.83
2022-12-14T00:31:31.393Z,1.70
2022-12-14T00:34:01.669Z,2.10
2022-12-14T00:36:30.888Z,1.70
2022-12-14T00:39:00.741Z,1.63
2022-12-14T00:41:28.221Z,1.40
2022-12-14T00:43:55.743Z,1.55
2022-12-14T00:46:23.547Z,1.55
2022-12-14T00:48:50.999Z,1.80
2022-12-14T00:51:18.634Z,1.57
2022-12-14T00:53:45.336Z,1.20
2022-12-14T00:56:21.125Z,1.50
2022-12-14T00:58:52.604Z,1.10
2022-12-14T01:01:20.671Z,1.20
2022-12-14T01:03:52.662Z,1.07
2022-12-14T01:06:22.793Z,1.17
2022-12-14T01:08:50.003Z,1.42
2022-12-14T01:11:18.412Z,1.23
2022-12-14T01:13:49.370Z,1.40
2022-12-14T01:16:17.484Z,1.35
2022-12-14T01:18:52.657Z,1.25
2022-12-14T01:21:23.320Z,1.30
2022-12-14T01:23:54.079Z,1.10
2022-12-14T01:26:25.048Z,1.37
2022-12-14T01:28:57.480Z,1.10
2022-12-14T01:31:27.188Z,1.40
2022-12-14T01:33:57.845Z,1.50
2022-12-14T01:36:27.267Z,1.50
2022-12-14T01:38:58.524Z,0.80
2022-12-14T01:41:29.743Z,1.70
2022-12-14T01:44:02.897Z,1.60
2022-12-14T01:46:35.044Z,1.15
2022-12-14T01:49:07.923Z,1.40
2022-12-14T01:51:36.846Z,1.17
2022-12-14T01:54:08.212Z,1.23
2022-12-14T01:56:42.288Z,1.58
2022-12-14T01:59:14.819Z,1.85
2022-12-14T02:01:45.221Z,1.50
2022-12-14T02:04:18.013Z,1.63
2022-12-14T02:06:50.207Z,1.30
2022-12-14T02:09:20.761Z,1.48
2022-12-14T02:11:57.400Z,1.60
2022-12-14T02:14:26.737Z,1.40
2022-12-14T02:16:57.009Z,1.70
2022-12-14T02:19:25.490Z,1.35
2022-12-14T02:22:14.760Z,1.30
2022-12-14T02:25:08.713Z,1.20
2022-12-14T02:28:04.980Z,1.40
2022-12-14T02:30:37.269Z,1.40
2022-12-14T02:33:25.189Z,1.50
2022-12-14T02:36:02.365Z,1.33
2022-12-14T02:38:46.339Z,1.30
2022-12-14T02:41:17.581Z,1.05
2022-12-14T02:43:52.300Z,1.57
2022-12-14T02:46:29.803Z,1.08
2022-12-14T02:49:01.845Z,1.30
2022-12-14T02:51:48.637Z,1.50
2022-12-14T02:54:21.480Z,1.20
2022-12-14T02:56:52.794Z,1.48
2022-12-14T02:59:22.101Z,1.40
2022-12-14T03:01:53.308Z,1.60
2022-12-14T03:04:21.010Z,1.63
2022-12-14T03:07:00.739Z,1.60
2022-12-14T03:09:30.774Z,1.50
2022-12-14T03:12:05.409Z,1.58
2022-12-14T03:14:37.244Z,1.50
2022-12-14T03:17:15.167Z,1.55
2022-12-14T03:19:50.446Z,1.40
2022-12-14T03:22:22.905Z,1.60
2022-12-14T03:24:55.837Z,1.38
2022-12-14T03:27:25.460Z,1.37
2022-12-14T03:29:58.254Z,1.38
2022-12-14T03:32:34.518Z,1.23
2022-12-14T03:35:06.003Z,1.20
2022-12-14T03:37:39.608Z,1.10
2022-12-14T03:40:10.587Z,1.37
2022-12-14T03:42:49.475Z,1.23
2022-12-14T03:45:21.869Z,1.10
2022-12-14T03:48:00.313Z,1.30
2022-12-14T03:50:36.731Z,1.27
2022-12-14T03:53:11.945Z,1.30
2022-12-14T03:55:45.009Z,1.33
2022-12-14T03:58:27.701Z,1.20
2022-12-14T04:01:01.566Z,1.30
2022-12-14T04:03:44.618Z,1.00
2022-12-14T04:06:21.329Z,0.75
2022-12-14T04:08:58.881Z,1.50
2022-12-14T04:11:33.196Z,1.20
2022-12-14T04:14:07.264Z,1.20
2022-12-14T04:16:40.953Z,1.25
2022-12-14T04:19:16.153Z,1.35
2022-12-14T04:21:47.848Z,1.58
2022-12-14T04:24:22.862Z,1.23
2022-12-14T04:26:55.791Z,1.13
2022-12-14T04:29:26.586Z,1.60
2022-12-14T04:31:58.596Z,1.38
2022-12-14T04:34:28.783Z,1.48
2022-12-14T04:36:58.909Z,1.00
2022-12-14T04:39:35.033Z,1.20
2022-12-14T04:42:03.400Z,1.50
2022-12-14T04:44:33.864Z,1.40
2022-12-14T04:47:03.097Z,1.27
2022-12-14T04:49:37.206Z,1.30
2022-12-14T04:52:12.671Z,1.58
2022-12-14T04:54:45.305Z,1.30
2022-12-14T04:57:19.410Z,1.50
2022-12-14T04:59:48.034Z,1.30
2022-12-14T05:02:21.602Z,1.55
2022-12-14T05:04:56.554Z,1.35
2022-12-14T05:07:36.325Z,1.65
2022-12-14T05:10:10.022Z,1.47
2022-12-14T05:12:43.073Z,1.33
2022-12-14T05:15:15.726Z,1.58
2022-12-14T05:17:42.971Z,1.45
2022-12-14T05:20:16.569Z,1.83
2022-12-14T05:22:43.203Z,1.80
2022-12-14T05:25:10.173Z,1.80
2022-12-14T05:27:36.992Z,1.70
2022-12-14T05:30:04.629Z,1.50
2022-12-14T05:32:31.478Z,1.50
2022-12-14T05:34:58.043Z,1.40
2022-12-14T05:37:25.849Z,1.55
2022-12-14T05:39:53.305Z,1.75
2022-12-14T05:42:19.845Z,1.50
2022-12-14T05:44:46.329Z,1.58
2022-12-14T05:47:14.164Z,1.38
2022-12-14T05:49:40.705Z,1.60
2022-12-14T05:52:07.355Z,1.20
2022-12-14T05:54:39.840Z,1.83
2022-12-14T05:57:06.301Z,1.52
2022-12-14T05:59:33.753Z,1.75
2022-12-14T06:02:00.489Z,1.92
2022-12-14T06:04:27.288Z,1.73
2022-12-14T06:06:54.447Z,1.25
2022-12-14T06:09:21.010Z,2.00
2022-12-14T06:11:49.681Z,2.03
2022-12-14T06:14:16.563Z,1.90
2022-12-14T06:16:45.248Z,1.80
2022-12-14T06:19:12.843Z,1.80
2022-12-14T06:21:42.780Z,1.70
2022-12-14T06:24:11.047Z,1.70
2022-12-14T06:26:39.438Z,1.90
2022-12-14T06:29:11.530Z,1.50
2022-12-14T06:31:39.870Z,1.63
2022-12-14T06:34:09.916Z,2.07
2022-12-14T06:36:38.989Z,1.40
2022-12-14T06:39:08.602Z,1.90
2022-12-14T06:41:35.110Z,1.67
2022-12-14T06:44:03.511Z,1.83
2022-12-14T06:46:31.729Z,1.90
2022-12-14T06:48:58.368Z,1.77
2022-12-14T06:51:25.061Z,1.60
2022-12-14T06:53:55.608Z,1.80
2022-12-14T06:56:24.695Z,2.00
2022-12-14T06:58:51.482Z,1.83
2022-12-14T07:01:21.094Z,2.00
2022-12-14T07:03:51.294Z,2.00
2022-12-14T07:06:19.665Z,2.00
2022-12-14T07:08:46.713Z,1.93
2022-12-14T07:11:14.845Z,2.30
2022-12-14T07:13:42.122Z,2.00
2022-12-14T07:16:14.691Z,1.73
2022-12-14T07:18:41.282Z,1.93
2022-12-14T07:21:12.163Z,1.80
2022-12-14T07:23:40.503Z,1.98
2022-12-14T07:26:09.006Z,2.22
2022-12-14T07:28:37.284Z,2.08
2022-12-14T07:31:06.049Z,2.10
2022-12-14T07:33:32.799Z,2.50
2022-12-14T07:36:11.427Z,2.30
2022-12-14T07:38:40.959Z,2.10
2022-12-14T07:41:09.423Z,2.33
2022-12-14T07:43:38.709Z,1.93
2022-12-14T07:46:07.723Z,2.13
2022-12-14T07:48:34.630Z,2.08
2022-12-14T07:51:03.629Z,2.58
2022-12-14T07:53:30.614Z,1.90
2022-12-14T07:56:02.365Z,2.23
2022-12-14T07:58:30.100Z,2.08
2022-12-14T08:01:07.503Z,2.13
2022-12-14T08:03:34.046Z,2.13
2022-12-14T08:06:04.973Z,2.30
2022-12-14T08:08:31.544Z,2.05
2022-12-14T08:10:58.266Z,2.28
2022-12-14T08:13:27.081Z,2.10
2022-12-14T08:15:54.437Z,2.45
2022-12-14T08:18:21.312Z,2.00
2022-12-14T08:20:53.120Z,2.20
2022-12-14T08:23:20.070Z,2.10
2022-12-14T08:25:52.959Z,2.50
2022-12-14T08:28:19.815Z,2.43
2022-12-14T08:30:47.854Z,2.50
2022-12-14T08:33:14.410Z,2.42
2022-12-14T08:35:42.027Z,2.50
2022-12-14T08:38:08.657Z,2.30
2022-12-14T08:40:38.156Z,2.55
2022-12-14T08:43:05.459Z,2.42
2022-12-14T08:45:33.542Z,2.85
2022-12-14T08:48:02.098Z,2.55
2022-12-14T08:50:29.369Z,2.20
2022-12-14T08:52:56.152Z,2.55
2022-12-14T08:55:28.275Z,2.67
2022-12-14T08:57:57.373Z,2.70
2022-12-14T09:00:24.014Z,2.58
2022-12-14T09:02:51.002Z,2.20
2022-12-14T09:05:19.325Z,2.80
2022-12-14T09:07:46.447Z,2.58
2022-12-14T09:10:13.194Z,2.75
2022-12-14T09:12:39.950Z,2.88
2022-12-14T09:15:07.743Z,2.80
2022-12-14T09:17:34.472Z,2.63
2022-12-14T09:20:01.009Z,2.95
2022-12-14T09:22:31.501Z,2.70
2022-12-14T09:24:58.081Z,2.40
2022-12-14T09:27:24.752Z,2.57
2022-12-14T09:29:51.298Z,2.63
2022-12-14T09:32:18.299Z,2.75
2022-12-14T09:34:44.946Z,3.00
2022-12-14T09:37:18.648Z,3.42
2022-12-14T09:39:49.694Z,2.40
2022-12-14T09:42:42.718Z,2.50
2022-12-14T09:45:16.244Z,3.13
2022-12-14T09:47:49.784Z,2.67
2022-12-14T09:50:32.722Z,2.80
2022-12-14T09:53:06.165Z,2.93
2022-12-14T09:56:11.141Z,2.70
2022-12-14T09:58:53.211Z,2.75
2022-12-14T10:04:56.776Z,2.75
2022-12-14T10:11:08.855Z,2.95
2022-12-14T10:14:16.187Z,2.97
2022-12-14T10:17:53.477Z,3.67
2022-12-14T10:24:54.042Z,2.67
2022-12-14T10:31:00.077Z,2.88
2022-12-14T10:33:28.856Z,3.28
2022-12-14T10:36:05.033Z,3.33
2022-12-14T10:38:41.911Z,3.10
2022-12-14T10:41:18.205Z,3.42
2022-12-14T10:43:51.832Z,3.03
2022-12-14T10:46:27.228Z,3.60
2022-12-14T10:49:00.809Z,3.55
2022-12-14T10:51:33.730Z,3.20
2022-12-14T10:54:12.015Z,2.78
2022-12-14T10:56:42.479Z,3.20
2022-12-14T10:59:36.956Z,3.30
2022-12-14T11:02:09.851Z,3.40
2022-12-14T11:04:39.397Z,2.93
2022-12-14T11:07:08.155Z,2.88
2022-12-14T11:09:36.560Z,3.38
2022-12-14T11:12:06.528Z,3.53
2022-12-14T11:14:35.946Z,3.38
2022-12-14T11:17:03.068Z,3.63
2022-12-14T11:19:31.046Z,3.47
2022-12-14T11:22:14.629Z,3.40
2022-12-14T11:24:51.748Z,3.60
2022-12-14T11:27:21.177Z,3.42
2022-12-14T11:29:51.516Z,3.40
2022-12-14T11:32:22.576Z,3.47
2022-12-14T11:34:56.795Z,3.60
2022-12-14T11:37:25.534Z,3.15
2022-12-14T11:39:54.576Z,3.63
2022-12-14T11:42:22.201Z,3.60
2022-12-14T11:44:50.386Z,3.58
2022-12-14T11:47:19.351Z,3.90
2022-12-14T11:49:47.733Z,3.55
2022-12-14T11:52:21.312Z,3.90
2022-12-14T11:55:04.566Z,3.70
2022-12-14T11:57:34.560Z,3.70
2022-12-14T12:00:04.787Z,3.65
2022-12-14T12:02:35.172Z,3.72
2022-12-14T12:05:07.957Z,3.63
2022-12-14T12:07:38.643Z,3.73
2022-12-14T12:10:37.265Z,3.38
2022-12-14T12:13:06.419Z,4.15
2022-12-14T12:15:37.118Z,3.60
2022-12-14T12:18:09.433Z,4.22
2022-12-14T12:20:40.967Z,3.90
2022-12-14T12:23:15.332Z,3.42
2022-12-14T12:25:43.900Z,4.25
2022-12-14T12:28:20.314Z,3.60
2022-12-14T12:30:51.814Z,3.88
2022-12-14T12:33:26.370Z,4.03
2022-12-14T12:35:56.312Z,4.00
2022-12-14T12:38:49.744Z,3.65
2022-12-14T12:41:28.881Z,4.38
2022-12-14T12:44:06.143Z,3.80
2022-12-14T12:46:43.960Z,4.23
2022-12-14T12:49:22.150Z,3.65
2022-12-14T12:51:53.499Z,3.90
2022-12-14T12:54:26.127Z,4.03
2022-12-14T12:56:56.729Z,4.03
2022-12-14T12:59:30.952Z,4.17
2022-12-14T13:02:01.063Z,3.90
2022-12-14T13:04:32.555Z,3.65
2022-12-14T13:07:06.245Z,4.18
2022-12-14T13:09:41.788Z,3.80
2022-12-14T13:12:24.823Z,4.07
2022-12-14T13:14:55.667Z,4.32
2022-12-14T13:17:30.702Z,4.10
2022-12-14T13:19:59.995Z,4.15
2022-12-14T13:22:29.528Z,4.05
2022-12-14T13:25:03.100Z,3.80
2022-12-14T13:27:45.472Z,3.88
2022-12-14T13:30:23.729Z,3.95
2022-12-14T13:33:04.932Z,3.88
2022-12-14T13:35:53.087Z,3.83
2022-12-14T13:38:35.612Z,3.90
2022-12-14T13:41:17.430Z,4.53
2022-12-14T13:47:15.892Z,4.00
2022-12-14T13:50:42.387Z,4.38
2022-12-14T13:53:29.196Z,4.10
2022-12-14T13:56:32.994Z,4.07
2022-12-14T13:59:33.544Z,4.47
2022-12-14T14:02:20.570Z,4.10
2022-12-14T14:04:47.963Z,3.97
2022-12-14T14:20:39.429Z,3.80
2022-12-14T14:23:35.269Z,4.57
2022-12-14T14:26:29.485Z,4.28
2022-12-14T14:29:22.176Z,4.43
2022-12-14T14:31:52.102Z,4.30
2022-12-14T14:34:34.807Z,4.57
2022-12-14T14:37:14.540Z,4.63
2022-12-14T14:40:04.605Z,4.55
2022-12-14T14:42:46.002Z,3.92
2022-12-14T14:45:28.499Z,4.50
2022-12-14T14:47:57.029Z,4.82
2022-12-14T14:50:26.727Z,4.40
2022-12-14T14:53:01.175Z,4.32
2022-12-14T14:55:55.184Z,4.30
2022-12-14T14:58:33.049Z,4.28
2022-12-14T15:01:20.086Z,4.47
2022-12-14T15:03:53.999Z,4.60
2022-12-14T15:06:23.880Z,4.80
2022-12-14T15:08:57.120Z,4.78
2022-12-14T15:11:27.783Z,4.50
2022-12-14T15:14:00.153Z,4.43
2022-12-14T15:16:32.096Z,4.60
2022-12-14T15:19:27.251Z,4.68
2022-12-14T15:21:57.391Z,5.05
2022-12-14T15:24:29.616Z,4.72
2022-12-14T15:26:56.560Z,4.43
2022-12-14T15:29:27.293Z,4.57
2022-12-14T15:31:59.506Z,5.05
2022-12-14T15:34:27.497Z,4.47
2022-12-14T15:36:54.791Z,4.83
2022-12-14T15:39:35.059Z,4.70
2022-12-14T15:42:03.503Z,4.60
2022-12-14T15:44:30.042Z,5.00
2022-12-14T15:46:56.844Z,4.63
2022-12-14T15:49:23.416Z,4.23
2022-12-14T15:51:51.140Z,4.88
2022-12-14T15:54:20.630Z,4.50
2022-12-14T15:56:51.728Z,4.30
2022-12-14T15:59:21.071Z,4.90
2022-12-14T16:01:54.411Z,4.55
2022-12-14T16:04:26.533Z,5.38
2022-12-14T16:06:57.200Z,6.25
2022-12-14T16:09:28.571Z,4.95
2022-12-14T16:12:01.903Z,4.50
2022-12-14T16:14:33.357Z,4.22
2022-12-14T16:17:01.002Z,4.53
2022-12-14T16:19:33.860Z,4.22
2022-12-14T16:22:23.179Z,4.50
2022-12-14T16:25:17.991Z,4.68
2022-12-14T16:27:50.015Z,5.03
2022-12-14T16:30:27.256Z,4.60
2022-12-14T16:36:23.561Z,4.03
2022-12-14T16:38:56.901Z,5.35
2022-12-14T16:41:34.579Z,4.95
2022-12-14T16:44:32.341Z,4.70
2022-12-14T16:47:24.947Z,4.80
2022-12-14T16:49:55.433Z,4.65
2022-12-14T16:52:29.082Z,4.75
2022-12-14T16:55:09.279Z,4.35
2022-12-14T16:57:39.403Z,4.23
2022-12-14T17:00:20.905Z,4.55
2022-12-14T17:02:54.823Z,4.68
2022-12-14T17:05:29.547Z,4.20
2022-12-14T17:07:57.283Z,4.90
2022-12-14T17:10:30.658Z,5.13
2022-12-14T17:12:58.093Z,6.00
2022-12-14T17:15:28.994Z,6.50
2022-12-14T17:17:59.936Z,7.45
2022-12-14T17:24:06.801Z,6.53
2022-12-14T17:26:39.566Z,6.10
2022-12-14T17:30:01.678Z,5.78
2022-12-14T17:33:25.854Z,5.53
2022-12-14T17:36:37.198Z,5.88
2022-12-14T17:39:36.382Z,5.95
2022-12-14T17:42:16.273Z,5.35
2022-12-14T17:44:50.934Z,5.60
2022-12-14T17:54:54.244Z,5.82
2022-12-14T17:57:59.950Z,5.87
2022-12-14T18:03:58.640Z,6.07
2022-12-14T18:06:25.279Z,6.50
2022-12-14T18:08:53.238Z,6.82
2022-12-14T18:11:21.676Z,6.68
2022-12-14T18:13:59.459Z,7.00
2022-12-14T18:16:59.393Z,6.53
2022-12-14T18:41:10.352Z,6.43
2022-12-14T18:44:36.106Z,6.25
2022-12-14T18:47:45.925Z,7.27
2022-12-14T19:05:34.369Z,6.23
2022-12-14T19:25:05.811Z,8.73
2022-12-14T19:31:32.086Z,9.32
2022-12-14T19:41:09.994Z,9.40
2022-12-14T19:44:29.262Z,8.98
2022-12-14T20:02:09.459Z,8.57
2022-12-14T20:51:10.112Z,7.57
2022-12-14T20:55:13.153Z,7.53
2022-12-14T20:58:16.039Z,7.70
2022-12-14T21:04:43.966Z,7.25
2022-12-14T21:25:46.211Z,8.23
2022-12-14T21:28:11.202Z,6.80
2022-12-14T21:58:27.687Z,7.25
2022-12-14T22:12:58.291Z,8.27
2022-12-14T22:15:58.105Z,7.45
2022-12-14T22:26:05.857Z,8.48
2022-12-14T22:32:36.348Z,7.32
2022-12-14T22:38:52.135Z,8.02
2022-12-14T22:42:34.851Z,8.13
2022-12-14T22:45:43.245Z,8.27
2022-12-14T22:55:41.836Z,8.55
2022-12-14T23:01:50.390Z,9.27
2022-12-14T23:08:15.882Z,9.40
2022-12-14T23:14:56.563Z,9.37
2022-12-14T23:18:00.016Z,8.52
2022-12-14T23:20:27.521Z,8.77
2022-12-14T23:22:54.038Z,9.50
2022-12-14T23:25:20.854Z,10.23
2022-12-14T23:27:50.559Z,9.70
2022-12-14T23:30:19.552Z,9.30
2022-12-14T23:32:46.017Z,10.55
2022-12-14T23:35:13.083Z,9.73
2022-12-14T23:37:39.613Z,9.52
2022-12-14T23:40:07.234Z,10.15
2022-12-14T23:42:33.710Z,9.73
2022-12-14T23:45:00.174Z,9.73
2022-12-14T23:47:28.668Z,9.80
2022-12-14T23:49:55.380Z,10.35
2022-12-14T23:52:22.085Z,10.10
2022-12-14T23:54:49.295Z,10.13
2022-12-14T23:57:15.905Z,11.05
2022-12-14T23:59:42.406Z,10.30
